sensor_id;sensor_type;location;lat;lon;timestamp;temperature;humidity
48988;DHT22;34799;51.440;-2.534;2024-02-28T00:02:24;9.60;99.90
48988;DHT22;34799;51.440;-2.534;2024-02-28T00:04:51;9.70;99.90
48988;DHT22;34799;51.440;-2.534;2024-02-28T00:07:18;9.60;99.90
48988;DHT22;34799;51.440;-2.534;2024-02-28T00:09:45;9.80;99.90
48988;DHT22;34799;51.440;-2.534;2024-02-28T00:12:13;9.50;99.90
48988;DHT22;34799;51.440;-2.534;2024-02-28T00:14:42;9.70;99.90
48988;DHT22;34799;51.440;-2.534;2024-02-28T00:17:11;9.80;99.90
48988;DHT22;34799;51.440;-2.534;2024-02-28T00:19:39;10.00;99.90
48988;DHT22;34799;51.440;-2.534;2024-02-28T00:22:06;9.60;99.90
48988;DHT22;34799;51.440;-2.534;2024-02-28T00:24:33;9.80;99.90
48988;DHT22;34799;51.440;-2.534;2024-02-28T00:27:01;9.80;99.90
48988;DHT22;34799;51.440;-2.534;2024-02-28T00:29:28;9.70;99.90
48988;DHT22;34799;51.440;-2.534;2024-02-28T00:31:55;9.80;99.90
48988;DHT22;34799;51.440;-2.534;2024-02-28T00:36:50;10.00;99.90
48988;DHT22;34799;51.440;-2.534;2024-02-28T00:39:18;9.60;99.90
48988;DHT22;34799;51.440;-2.534;2024-02-28T00:41:45;9.70;99.90
48988;DHT22;34799;51.440;-2.534;2024-02-28T00:44:12;9.80;99.90
48988;DHT22;34799;51.440;-2.534;2024-02-28T00:46:40;9.50;99.90
48988;DHT22;34799;51.440;-2.534;2024-02-28T00:49:07;9.80;99.90
48988;DHT22;34799;51.440;-2.534;2024-02-28T00:51:34;10.10;99.90
48988;DHT22;34799;51.440;-2.534;2024-02-28T00:54:03;9.80;99.90
48988;DHT22;34799;51.440;-2.534;2024-02-28T00:56:30;9.80;99.90
48988;DHT22;34799;51.440;-2.534;2024-02-28T00:58:58;9.70;99.90
48988;DHT22;34799;51.440;-2.534;2024-02-28T01:01:25;9.60;99.90
48988;DHT22;34799;51.440;-2.534;2024-02-28T01:03:52;10.00;99.90
48988;DHT22;34799;51.440;-2.534;2024-02-28T01:06:20;10.30;99.90
48988;DHT22;34799;51.440;-2.534;2024-02-28T01:08:47;9.60;99.90
48988;DHT22;34799;51.440;-2.534;2024-02-28T01:11:15;10.00;99.90
48988;DHT22;34799;51.440;-2.534;2024-02-28T01:13:42;10.10;99.90
48988;DHT22;34799;51.440;-2.534;2024-02-28T01:16:09;9.80;99.90
48988;DHT22;34799;51.440;-2.534;2024-02-28T01:18:37;9.40;99.90
48988;DHT22;34799;51.440;-2.534;2024-02-28T01:21:04;9.80;99.90
48988;DHT22;34799;51.440;-2.534;2024-02-28T01:23:31;9.70;99.90
48988;DHT22;34799;51.440;-2.534;2024-02-28T01:25:58;9.60;99.90
48988;DHT22;34799;51.440;-2.534;2024-02-28T01:28:26;12.20;99.90
48988;DHT22;34799;51.440;-2.534;2024-02-28T01:30:53;9.80;99.90
48988;DHT22;34799;51.440;-2.534;2024-02-28T01:33:20;9.70;99.90
48988;DHT22;34799;51.440;-2.534;2024-02-28T01:35:47;9.70;99.90
48988;DHT22;34799;51.440;-2.534;2024-02-28T01:40:46;9.70;99.90
48988;DHT22;34799;51.440;-2.534;2024-02-28T01:43:14;9.20;99.90
48988;DHT22;34799;51.440;-2.534;2024-02-28T01:45:41;9.50;99.90
48988;DHT22;34799;51.440;-2.534;2024-02-28T01:48:09;9.50;99.90
48988;DHT22;34799;51.440;-2.534;2024-02-28T01:50:38;9.20;99.90
48988;DHT22;34799;51.440;-2.534;2024-02-28T01:53:08;9.50;99.90
48988;DHT22;34799;51.440;-2.534;2024-02-28T01:55:37;9.30;99.90
48988;DHT22;34799;51.440;-2.534;2024-02-28T01:58:05;9.30;99.90
48988;DHT22;34799;51.440;-2.534;2024-02-28T02:00:33;9.50;99.90
48988;DHT22;34799;51.440;-2.534;2024-02-28T02:03:01;9.60;99.90
48988;DHT22;34799;51.440;-2.534;2024-02-28T02:05:29;9.40;99.90
48988;DHT22;34799;51.440;-2.534;2024-02-28T02:07:57;9.40;99.90
48988;DHT22;34799;51.440;-2.534;2024-02-28T02:10:26;9.40;99.90
48988;DHT22;34799;51.440;-2.534;2024-02-28T02:12:53;9.70;99.90
48988;DHT22;34799;51.440;-2.534;2024-02-28T02:17:48;9.60;99.90
48988;DHT22;34799;51.440;-2.534;2024-02-28T02:20:17;9.40;99.90
48988;DHT22;34799;51.440;-2.534;2024-02-28T02:22:47;9.40;99.90
48988;DHT22;34799;51.440;-2.534;2024-02-28T02:25:14;9.60;99.90
48988;DHT22;34799;51.440;-2.534;2024-02-28T02:27:41;9.50;99.90
48988;DHT22;34799;51.440;-2.534;2024-02-28T02:30:10;9.70;99.90
48988;DHT22;34799;51.440;-2.534;2024-02-28T02:32:37;9.40;99.90
48988;DHT22;34799;51.440;-2.534;2024-02-28T02:35:04;9.60;99.90
48988;DHT22;34799;51.440;-2.534;2024-02-28T02:37:32;9.40;99.90
48988;DHT22;34799;51.440;-2.534;2024-02-28T02:40:01;10.00;99.90
48988;DHT22;34799;51.440;-2.534;2024-02-28T02:42:29;9.90;99.90
48988;DHT22;34799;51.440;-2.534;2024-02-28T02:44:57;9.80;99.90
48988;DHT22;34799;51.440;-2.534;2024-02-28T02:47:24;9.50;99.90
48988;DHT22;34799;51.440;-2.534;2024-02-28T02:49:52;9.70;99.90
48988;DHT22;34799;51.440;-2.534;2024-02-28T02:52:19;9.20;99.90
48988;DHT22;34799;51.440;-2.534;2024-02-28T02:54:47;9.70;99.90
48988;DHT22;34799;51.440;-2.534;2024-02-28T02:59:41;9.90;99.90
48988;DHT22;34799;51.440;-2.534;2024-02-28T03:02:08;9.90;99.90
48988;DHT22;34799;51.440;-2.534;2024-02-28T03:07:04;9.50;99.90
48988;DHT22;34799;51.440;-2.534;2024-02-28T03:09:30;9.60;99.90
48988;DHT22;34799;51.440;-2.534;2024-02-28T03:11:58;9.90;99.90
48988;DHT22;34799;51.440;-2.534;2024-02-28T03:14:26;9.70;99.90
48988;DHT22;34799;51.440;-2.534;2024-02-28T03:16:55;9.80;99.90
48988;DHT22;34799;51.440;-2.534;2024-02-28T03:19:22;9.80;99.90
48988;DHT22;34799;51.440;-2.534;2024-02-28T03:21:49;9.90;99.90
48988;DHT22;34799;51.440;-2.534;2024-02-28T03:24:16;10.00;99.90
48988;DHT22;34799;51.440;-2.534;2024-02-28T03:26:45;9.70;99.90
48988;DHT22;34799;51.440;-2.534;2024-02-28T03:29:12;9.90;99.90
48988;DHT22;34799;51.440;-2.534;2024-02-28T03:34:07;9.80;99.90
48988;DHT22;34799;51.440;-2.534;2024-02-28T03:36:35;9.70;99.90
48988;DHT22;34799;51.440;-2.534;2024-02-28T03:39:03;9.70;99.90
48988;DHT22;34799;51.440;-2.534;2024-02-28T03:41:30;9.60;99.90
48988;DHT22;34799;51.440;-2.534;2024-02-28T03:43:57;9.60;99.90
48988;DHT22;34799;51.440;-2.534;2024-02-28T03:46:24;10.10;99.90
48988;DHT22;34799;51.440;-2.534;2024-02-28T03:48:52;9.40;99.90
48988;DHT22;34799;51.440;-2.534;2024-02-28T03:51:19;9.40;99.90
48988;DHT22;34799;51.440;-2.534;2024-02-28T03:53:46;9.80;99.90
48988;DHT22;34799;51.440;-2.534;2024-02-28T03:56:24;9.50;99.90
48988;DHT22;34799;51.440;-2.534;2024-02-28T03:58:53;9.50;99.90
48988;DHT22;34799;51.440;-2.534;2024-02-28T04:01:21;9.50;99.90
48988;DHT22;34799;51.440;-2.534;2024-02-28T04:03:48;9.20;99.90
48988;DHT22;34799;51.440;-2.534;2024-02-28T04:06:15;9.30;99.90
48988;DHT22;34799;51.440;-2.534;2024-02-28T04:08:42;9.70;99.90
48988;DHT22;34799;51.440;-2.534;2024-02-28T04:11:10;9.10;99.90
48988;DHT22;34799;51.440;-2.534;2024-02-28T04:13:37;9.20;99.90
48988;DHT22;34799;51.440;-2.534;2024-02-28T04:16:05;9.30;99.90
48988;DHT22;34799;51.440;-2.534;2024-02-28T04:18:33;8.60;99.90
48988;DHT22;34799;51.440;-2.534;2024-02-28T04:21:00;9.50;99.90
48988;DHT22;34799;51.440;-2.534;2024-02-28T04:23:28;9.30;99.90
48988;DHT22;34799;51.440;-2.534;2024-02-28T04:25:55;9.00;99.90
48988;DHT22;34799;51.440;-2.534;2024-02-28T04:28:22;9.10;99.90
48988;DHT22;34799;51.440;-2.534;2024-02-28T04:30:49;9.30;99.90
48988;DHT22;34799;51.440;-2.534;2024-02-28T04:33:17;8.90;99.90
48988;DHT22;34799;51.440;-2.534;2024-02-28T04:35:44;9.30;99.90
48988;DHT22;34799;51.440;-2.534;2024-02-28T04:38:12;9.30;99.90
48988;DHT22;34799;51.440;-2.534;2024-02-28T04:40:39;9.20;99.90
48988;DHT22;34799;51.440;-2.534;2024-02-28T04:43:07;9.20;99.90
48988;DHT22;34799;51.440;-2.534;2024-02-28T04:45:34;9.00;99.90
48988;DHT22;34799;51.440;-2.534;2024-02-28T04:48:01;9.10;99.90
48988;DHT22;34799;51.440;-2.534;2024-02-28T04:50:28;9.10;99.90
48988;DHT22;34799;51.440;-2.534;2024-02-28T04:52:56;8.90;99.90
48988;DHT22;34799;51.440;-2.534;2024-02-28T04:55:23;9.30;99.90
48988;DHT22;34799;51.440;-2.534;2024-02-28T04:57:51;9.30;99.90
48988;DHT22;34799;51.440;-2.534;2024-02-28T05:00:19;8.90;99.90
48988;DHT22;34799;51.440;-2.534;2024-02-28T05:02:46;9.60;99.90
48988;DHT22;34799;51.440;-2.534;2024-02-28T05:05:14;9.00;99.90
48988;DHT22;34799;51.440;-2.534;2024-02-28T05:07:41;9.50;99.90
48988;DHT22;34799;51.440;-2.534;2024-02-28T05:10:09;9.10;99.90
48988;DHT22;34799;51.440;-2.534;2024-02-28T05:12:36;9.00;99.90
48988;DHT22;34799;51.440;-2.534;2024-02-28T05:15:04;8.90;99.90
48988;DHT22;34799;51.440;-2.534;2024-02-28T05:17:33;9.00;99.90
48988;DHT22;34799;51.440;-2.534;2024-02-28T05:20:00;9.20;99.90
48988;DHT22;34799;51.440;-2.534;2024-02-28T05:22:28;9.10;99.90
48988;DHT22;34799;51.440;-2.534;2024-02-28T05:24:55;9.00;99.90
48988;DHT22;34799;51.440;-2.534;2024-02-28T05:27:23;9.10;99.90
48988;DHT22;34799;51.440;-2.534;2024-02-28T05:29:50;9.10;99.90
48988;DHT22;34799;51.440;-2.534;2024-02-28T05:32:17;9.10;99.90
48988;DHT22;34799;51.440;-2.534;2024-02-28T05:34:46;9.00;99.90
48988;DHT22;34799;51.440;-2.534;2024-02-28T05:37:16;8.90;99.90
48988;DHT22;34799;51.440;-2.534;2024-02-28T05:39:43;8.70;99.90
48988;DHT22;34799;51.440;-2.534;2024-02-28T05:42:11;8.70;99.90
48988;DHT22;34799;51.440;-2.534;2024-02-28T05:44:38;9.00;99.90
48988;DHT22;34799;51.440;-2.534;2024-02-28T05:47:05;9.10;99.90
48988;DHT22;34799;51.440;-2.534;2024-02-28T05:49:32;8.70;99.90
48988;DHT22;34799;51.440;-2.534;2024-02-28T05:52:00;8.70;99.90
48988;DHT22;34799;51.440;-2.534;2024-02-28T05:54:27;9.00;99.90
48988;DHT22;34799;51.440;-2.534;2024-02-28T05:56:56;8.70;99.90
48988;DHT22;34799;51.440;-2.534;2024-02-28T05:59:24;8.70;99.90
48988;DHT22;34799;51.440;-2.534;2024-02-28T06:01:52;9.10;99.90
48988;DHT22;34799;51.440;-2.534;2024-02-28T06:04:20;9.00;99.90
48988;DHT22;34799;51.440;-2.534;2024-02-28T06:09:16;8.80;99.90
48988;DHT22;34799;51.440;-2.534;2024-02-28T06:11:43;9.00;99.90
48988;DHT22;34799;51.440;-2.534;2024-02-28T06:14:10;8.60;99.90
48988;DHT22;34799;51.440;-2.534;2024-02-28T06:16:38;8.60;99.90
48988;DHT22;34799;51.440;-2.534;2024-02-28T06:19:05;8.80;99.90
48988;DHT22;34799;51.440;-2.534;2024-02-28T06:21:32;8.40;99.90
48988;DHT22;34799;51.440;-2.534;2024-02-28T06:23:59;8.60;99.90
48988;DHT22;34799;51.440;-2.534;2024-02-28T06:26:27;8.60;99.90
48988;DHT22;34799;51.440;-2.534;2024-02-28T06:28:54;8.60;99.90
48988;DHT22;34799;51.440;-2.534;2024-02-28T06:31:28;8.90;99.90
48988;DHT22;34799;51.440;-2.534;2024-02-28T06:33:58;8.70;99.90
48988;DHT22;34799;51.440;-2.534;2024-02-28T06:36:26;8.40;99.90
48988;DHT22;34799;51.440;-2.534;2024-02-28T06:38:53;8.60;99.90
48988;DHT22;34799;51.440;-2.534;2024-02-28T06:41:20;8.40;99.90
48988;DHT22;34799;51.440;-2.534;2024-02-28T06:43:47;8.60;99.90
48988;DHT22;34799;51.440;-2.534;2024-02-28T06:48:42;8.70;99.90
48988;DHT22;34799;51.440;-2.534;2024-02-28T06:51:09;8.50;99.90
48988;DHT22;34799;51.440;-2.534;2024-02-28T06:53:36;8.50;99.90
48988;DHT22;34799;51.440;-2.534;2024-02-28T06:56:04;8.70;99.90
48988;DHT22;34799;51.440;-2.534;2024-02-28T06:58:32;8.60;99.90
48988;DHT22;34799;51.440;-2.534;2024-02-28T07:00:59;8.30;99.90
48988;DHT22;34799;51.440;-2.534;2024-02-28T07:03:26;8.40;99.90
48988;DHT22;34799;51.440;-2.534;2024-02-28T07:05:54;8.30;99.90
48988;DHT22;34799;51.440;-2.534;2024-02-28T07:08:22;8.40;99.90
48988;DHT22;34799;51.440;-2.534;2024-02-28T07:11:15;8.50;99.90
48988;DHT22;34799;51.440;-2.534;2024-02-28T07:13:42;8.70;99.90
48988;DHT22;34799;51.440;-2.534;2024-02-28T07:16:11;8.30;99.90
48988;DHT22;34799;51.440;-2.534;2024-02-28T07:18:38;8.70;99.90
48988;DHT22;34799;51.440;-2.534;2024-02-28T07:21:05;8.60;99.90
48988;DHT22;34799;51.440;-2.534;2024-02-28T07:23:34;8.70;99.90
48988;DHT22;34799;51.440;-2.534;2024-02-28T07:26:01;8.70;99.90
48988;DHT22;34799;51.440;-2.534;2024-02-28T07:28:31;8.40;99.90
48988;DHT22;34799;51.440;-2.534;2024-02-28T07:30:59;8.80;99.90
48988;DHT22;34799;51.440;-2.534;2024-02-28T07:35:54;8.80;99.90
48988;DHT22;34799;51.440;-2.534;2024-02-28T07:38:21;8.50;99.90
48988;DHT22;34799;51.440;-2.534;2024-02-28T07:40:48;8.60;99.90
48988;DHT22;34799;51.440;-2.534;2024-02-28T07:43:16;8.60;99.90
48988;DHT22;34799;51.440;-2.534;2024-02-28T07:48:10;8.50;99.90
48988;DHT22;34799;51.440;-2.534;2024-02-28T07:50:38;8.80;99.90
48988;DHT22;34799;51.440;-2.534;2024-02-28T07:53:08;8.60;99.90
48988;DHT22;34799;51.440;-2.534;2024-02-28T07:55:35;8.40;99.90
48988;DHT22;34799;51.440;-2.534;2024-02-28T07:58:02;8.50;99.90
48988;DHT22;34799;51.440;-2.534;2024-02-28T08:00:30;9.00;99.90
48988;DHT22;34799;51.440;-2.534;2024-02-28T08:03:01;8.80;99.90
48988;DHT22;34799;51.440;-2.534;2024-02-28T08:05:28;9.00;99.90
48988;DHT22;34799;51.440;-2.534;2024-02-28T08:07:56;9.00;99.90
48988;DHT22;34799;51.440;-2.534;2024-02-28T08:10:23;9.00;99.90
48988;DHT22;34799;51.440;-2.534;2024-02-28T08:15:18;8.70;99.90
48988;DHT22;34799;51.440;-2.534;2024-02-28T08:17:46;8.90;99.90
48988;DHT22;34799;51.440;-2.534;2024-02-28T08:20:13;8.90;99.90
48988;DHT22;34799;51.440;-2.534;2024-02-28T08:22:40;8.70;99.90
48988;DHT22;34799;51.440;-2.534;2024-02-28T08:25:08;8.90;99.90
48988;DHT22;34799;51.440;-2.534;2024-02-28T08:27:39;9.20;99.90
48988;DHT22;34799;51.440;-2.534;2024-02-28T08:32:34;9.20;99.90
48988;DHT22;34799;51.440;-2.534;2024-02-28T08:37:29;9.00;99.90
48988;DHT22;34799;51.440;-2.534;2024-02-28T08:39:56;9.20;99.90
48988;DHT22;34799;51.440;-2.534;2024-02-28T08:42:26;9.40;99.90
48988;DHT22;34799;51.440;-2.534;2024-02-28T08:44:59;9.30;99.90
48988;DHT22;34799;51.440;-2.534;2024-02-28T08:47:27;9.20;99.90
48988;DHT22;34799;51.440;-2.534;2024-02-28T08:49:54;9.20;99.90
48988;DHT22;34799;51.440;-2.534;2024-02-28T08:52:23;11.20;99.90
48988;DHT22;34799;51.440;-2.534;2024-02-28T08:57:17;9.30;99.90
48988;DHT22;34799;51.440;-2.534;2024-02-28T08:59:47;9.40;99.90
48988;DHT22;34799;51.440;-2.534;2024-02-28T09:02:16;9.00;99.90
48988;DHT22;34799;51.440;-2.534;2024-02-28T09:07:12;9.10;99.90
48988;DHT22;34799;51.440;-2.534;2024-02-28T09:09:42;9.30;99.90
48988;DHT22;34799;51.440;-2.534;2024-02-28T09:14:37;9.30;99.90
48988;DHT22;34799;51.440;-2.534;2024-02-28T09:17:05;9.10;99.90
48988;DHT22;34799;51.440;-2.534;2024-02-28T09:19:32;9.20;99.90
48988;DHT22;34799;51.440;-2.534;2024-02-28T09:24:29;9.20;99.90
48988;DHT22;34799;51.440;-2.534;2024-02-28T09:29:23;9.10;99.90
48988;DHT22;34799;51.440;-2.534;2024-02-28T09:31:51;9.10;99.90
48988;DHT22;34799;51.440;-2.534;2024-02-28T09:34:19;9.70;99.90
48988;DHT22;34799;51.440;-2.534;2024-02-28T09:36:47;9.40;99.90
48988;DHT22;34799;51.440;-2.534;2024-02-28T09:39:15;9.50;99.90
48988;DHT22;34799;51.440;-2.534;2024-02-28T09:41:42;9.20;99.90
48988;DHT22;34799;51.440;-2.534;2024-02-28T09:44:11;9.50;99.90
48988;DHT22;34799;51.440;-2.534;2024-02-28T09:46:39;9.80;99.90
48988;DHT22;34799;51.440;-2.534;2024-02-28T09:49:10;9.10;99.90
48988;DHT22;34799;51.440;-2.534;2024-02-28T09:51:38;9.50;99.90
48988;DHT22;34799;51.440;-2.534;2024-02-28T09:54:06;9.60;99.90
48988;DHT22;34799;51.440;-2.534;2024-02-28T09:56:33;9.80;99.90
48988;DHT22;34799;51.440;-2.534;2024-02-28T09:59:01;9.40;99.90
48988;DHT22;34799;51.440;-2.534;2024-02-28T10:01:30;9.90;99.90
48988;DHT22;34799;51.440;-2.534;2024-02-28T10:04:01;9.70;99.90
48988;DHT22;34799;51.440;-2.534;2024-02-28T10:06:29;10.00;99.90
48988;DHT22;34799;51.440;-2.534;2024-02-28T10:08:56;9.60;99.90
48988;DHT22;34799;51.440;-2.534;2024-02-28T10:11:24;10.00;99.90
48988;DHT22;34799;51.440;-2.534;2024-02-28T10:13:52;9.40;99.90
48988;DHT22;34799;51.440;-2.534;2024-02-28T10:16:19;9.80;99.90
48988;DHT22;34799;51.440;-2.534;2024-02-28T10:18:47;9.80;99.90
48988;DHT22;34799;51.440;-2.534;2024-02-28T10:21:15;9.80;99.90
48988;DHT22;34799;51.440;-2.534;2024-02-28T10:23:45;9.80;99.90
48988;DHT22;34799;51.440;-2.534;2024-02-28T10:26:13;10.30;99.90
48988;DHT22;34799;51.440;-2.534;2024-02-28T10:28:40;9.90;99.90
48988;DHT22;34799;51.440;-2.534;2024-02-28T10:31:07;10.20;99.90
48988;DHT22;34799;51.440;-2.534;2024-02-28T10:33:35;9.80;99.90
48988;DHT22;34799;51.440;-2.534;2024-02-28T10:36:04;9.90;99.90
48988;DHT22;34799;51.440;-2.534;2024-02-28T10:38:32;9.80;99.90
48988;DHT22;34799;51.440;-2.534;2024-02-28T10:41:01;9.10;99.90
48988;DHT22;34799;51.440;-2.534;2024-02-28T10:43:29;10.20;99.90
48988;DHT22;34799;51.440;-2.534;2024-02-28T10:45:57;10.10;99.90
48988;DHT22;34799;51.440;-2.534;2024-02-28T10:48:33;10.40;99.90
48988;DHT22;34799;51.440;-2.534;2024-02-28T10:51:04;10.20;99.90
48988;DHT22;34799;51.440;-2.534;2024-02-28T10:53:44;10.00;99.90
48988;DHT22;34799;51.440;-2.534;2024-02-28T10:56:14;10.60;99.90
48988;DHT22;34799;51.440;-2.534;2024-02-28T10:59:01;10.10;99.90
48988;DHT22;34799;51.440;-2.534;2024-02-28T11:01:30;10.40;99.90
48988;DHT22;34799;51.440;-2.534;2024-02-28T11:03:57;10.10;99.90
48988;DHT22;34799;51.440;-2.534;2024-02-28T11:06:26;9.90;99.90
48988;DHT22;34799;51.440;-2.534;2024-02-28T11:08:55;10.50;99.90
48988;DHT22;34799;51.440;-2.534;2024-02-28T11:11:30;10.20;99.90
48988;DHT22;34799;51.440;-2.534;2024-02-28T11:13:59;9.90;99.90
48988;DHT22;34799;51.440;-2.534;2024-02-28T11:16:31;10.10;99.90
48988;DHT22;34799;51.440;-2.534;2024-02-28T11:18:59;10.20;99.90
48988;DHT22;34799;51.440;-2.534;2024-02-28T11:21:28;10.10;99.90
48988;DHT22;34799;51.440;-2.534;2024-02-28T11:23:59;10.20;99.90
48988;DHT22;34799;51.440;-2.534;2024-02-28T11:26:27;10.30;99.90
48988;DHT22;34799;51.440;-2.534;2024-02-28T11:28:55;10.50;99.90
48988;DHT22;34799;51.440;-2.534;2024-02-28T11:31:23;9.90;99.90
48988;DHT22;34799;51.440;-2.534;2024-02-28T11:33:51;10.00;99.90
48988;DHT22;34799;51.440;-2.534;2024-02-28T11:36:18;10.10;99.90
48988;DHT22;34799;51.440;-2.534;2024-02-28T11:41:14;9.90;99.90
48988;DHT22;34799;51.440;-2.534;2024-02-28T11:43:42;10.50;99.90
48988;DHT22;34799;51.440;-2.534;2024-02-28T11:46:10;10.20;99.90
48988;DHT22;34799;51.440;-2.534;2024-02-28T11:48:39;10.10;99.90
48988;DHT22;34799;51.440;-2.534;2024-02-28T11:51:07;10.20;99.90
48988;DHT22;34799;51.440;-2.534;2024-02-28T11:53:35;10.20;99.90
48988;DHT22;34799;51.440;-2.534;2024-02-28T11:56:02;10.10;99.90
48988;DHT22;34799;51.440;-2.534;2024-02-28T12:00:58;9.90;99.90
48988;DHT22;34799;51.440;-2.534;2024-02-28T12:03:25;10.40;99.90
48988;DHT22;34799;51.440;-2.534;2024-02-28T12:05:55;10.20;99.90
48988;DHT22;34799;51.440;-2.534;2024-02-28T12:08:24;10.30;99.90
48988;DHT22;34799;51.440;-2.534;2024-02-28T12:10:54;10.30;99.90
48988;DHT22;34799;51.440;-2.534;2024-02-28T12:13:23;10.30;99.90
48988;DHT22;34799;51.440;-2.534;2024-02-28T12:18:19;10.50;99.90
48988;DHT22;34799;51.440;-2.534;2024-02-28T12:20:46;10.30;99.90
48988;DHT22;34799;51.440;-2.534;2024-02-28T12:23:14;10.60;99.90
48988;DHT22;34799;51.440;-2.534;2024-02-28T12:25:42;10.50;99.90
48988;DHT22;34799;51.440;-2.534;2024-02-28T12:28:09;10.60;99.90
48988;DHT22;34799;51.440;-2.534;2024-02-28T12:30:42;10.50;99.90
48988;DHT22;34799;51.440;-2.534;2024-02-28T12:33:11;10.50;99.90
48988;DHT22;34799;51.440;-2.534;2024-02-28T12:35:41;10.40;99.90
48988;DHT22;34799;51.440;-2.534;2024-02-28T12:38:08;10.30;99.90
48988;DHT22;34799;51.440;-2.534;2024-02-28T12:40:37;10.00;99.90
48988;DHT22;34799;51.440;-2.534;2024-02-28T12:45:31;10.90;99.90
48988;DHT22;34799;51.440;-2.534;2024-02-28T12:48:00;10.80;99.90
48988;DHT22;34799;51.440;-2.534;2024-02-28T12:50:29;10.60;99.90
48988;DHT22;34799;51.440;-2.534;2024-02-28T12:52:56;11.20;99.90
48988;DHT22;34799;51.440;-2.534;2024-02-28T12:55:25;10.30;99.90
48988;DHT22;34799;51.440;-2.534;2024-02-28T13:00:19;10.20;99.90
48988;DHT22;34799;51.440;-2.534;2024-02-28T13:02:48;10.20;99.90
48988;DHT22;34799;51.440;-2.534;2024-02-28T13:05:15;10.70;99.90
48988;DHT22;34799;51.440;-2.534;2024-02-28T13:07:44;10.60;99.90
48988;DHT22;34799;51.440;-2.534;2024-02-28T13:10:11;10.60;99.90
48988;DHT22;34799;51.440;-2.534;2024-02-28T13:12:39;10.70;99.90
48988;DHT22;34799;51.440;-2.534;2024-02-28T13:15:07;11.20;99.90
48988;DHT22;34799;51.440;-2.534;2024-02-28T13:17:35;10.60;99.90
48988;DHT22;34799;51.440;-2.534;2024-02-28T13:20:03;10.90;99.90
48988;DHT22;34799;51.440;-2.534;2024-02-28T13:22:30;10.60;99.90
48988;DHT22;34799;51.440;-2.534;2024-02-28T13:24:58;10.90;99.90
48988;DHT22;34799;51.440;-2.534;2024-02-28T13:27:25;10.60;99.90
48988;DHT22;34799;51.440;-2.534;2024-02-28T13:32:21;10.70;99.90
48988;DHT22;34799;51.440;-2.534;2024-02-28T13:34:48;10.90;99.90
48988;DHT22;34799;51.440;-2.534;2024-02-28T13:37:16;10.60;99.90
48988;DHT22;34799;51.440;-2.534;2024-02-28T13:39:43;10.80;99.90
48988;DHT22;34799;51.440;-2.534;2024-02-28T13:42:13;10.80;99.90
48988;DHT22;34799;51.440;-2.534;2024-02-28T13:44:42;10.80;99.90
48988;DHT22;34799;51.440;-2.534;2024-02-28T13:47:11;10.80;99.90
48988;DHT22;34799;51.440;-2.534;2024-02-28T13:49:40;10.60;99.90
48988;DHT22;34799;51.440;-2.534;2024-02-28T13:52:07;10.80;99.90
48988;DHT22;34799;51.440;-2.534;2024-02-28T13:54:35;10.70;99.90
48988;DHT22;34799;51.440;-2.534;2024-02-28T13:57:02;10.90;99.90
48988;DHT22;34799;51.440;-2.534;2024-02-28T13:59:32;10.70;99.90
48988;DHT22;34799;51.440;-2.534;2024-02-28T14:01:59;10.70;99.90
48988;DHT22;34799;51.440;-2.534;2024-02-28T14:04:27;11.00;99.90
48988;DHT22;34799;51.440;-2.534;2024-02-28T14:06:54;10.70;99.90
48988;DHT22;34799;51.440;-2.534;2024-02-28T14:11:49;10.60;99.90
48988;DHT22;34799;51.440;-2.534;2024-02-28T14:14:16;11.20;99.90
48988;DHT22;34799;51.440;-2.534;2024-02-28T14:16:43;11.00;99.90
48988;DHT22;34799;51.440;-2.534;2024-02-28T14:19:10;10.90;99.90
48988;DHT22;34799;51.440;-2.534;2024-02-28T14:21:38;11.10;99.90
48988;DHT22;34799;51.440;-2.534;2024-02-28T14:24:05;11.30;99.90
48988;DHT22;34799;51.440;-2.534;2024-02-28T14:29:00;10.80;99.90
48988;DHT22;34799;51.440;-2.534;2024-02-28T14:31:28;11.10;99.90
48988;DHT22;34799;51.440;-2.534;2024-02-28T14:33:56;11.10;99.90
48988;DHT22;34799;51.440;-2.534;2024-02-28T14:36:24;11.30;99.90
48988;DHT22;34799;51.440;-2.534;2024-02-28T14:38:52;11.20;99.90
48988;DHT22;34799;51.440;-2.534;2024-02-28T14:41:19;11.30;99.90
48988;DHT22;34799;51.440;-2.534;2024-02-28T14:43:48;11.30;99.90
48988;DHT22;34799;51.440;-2.534;2024-02-28T14:46:16;11.40;99.90
48988;DHT22;34799;51.440;-2.534;2024-02-28T14:48:46;11.40;99.90
48988;DHT22;34799;51.440;-2.534;2024-02-28T14:51:19;11.30;99.90
48988;DHT22;34799;51.440;-2.534;2024-02-28T14:53:47;11.50;99.90
48988;DHT22;34799;51.440;-2.534;2024-02-28T14:56:15;11.30;99.90
48988;DHT22;34799;51.440;-2.534;2024-02-28T14:58:44;11.50;99.90
48988;DHT22;34799;51.440;-2.534;2024-02-28T15:01:11;11.50;99.90
48988;DHT22;34799;51.440;-2.534;2024-02-28T15:03:39;11.30;99.90
48988;DHT22;34799;51.440;-2.534;2024-02-28T15:06:08;11.40;99.90
48988;DHT22;34799;51.440;-2.534;2024-02-28T15:08:35;11.60;99.90
48988;DHT22;34799;51.440;-2.534;2024-02-28T15:11:03;11.60;99.90
48988;DHT22;34799;51.440;-2.534;2024-02-28T15:13:31;11.50;99.90
48988;DHT22;34799;51.440;-2.534;2024-02-28T15:15:58;11.60;99.90
48988;DHT22;34799;51.440;-2.534;2024-02-28T15:20:53;11.40;99.90
48988;DHT22;34799;51.440;-2.534;2024-02-28T15:23:23;11.70;99.90
48988;DHT22;34799;51.440;-2.534;2024-02-28T15:25:51;11.80;99.90
48988;DHT22;34799;51.440;-2.534;2024-02-28T15:28:22;11.60;99.90
48988;DHT22;34799;51.440;-2.534;2024-02-28T15:30:51;11.60;99.90
48988;DHT22;34799;51.440;-2.534;2024-02-28T15:33:19;12.00;99.90
48988;DHT22;34799;51.440;-2.534;2024-02-28T15:35:46;11.70;99.90
48988;DHT22;34799;51.440;-2.534;2024-02-28T15:38:13;11.70;99.90
48988;DHT22;34799;51.440;-2.534;2024-02-28T15:40:41;11.80;99.90
48988;DHT22;34799;51.440;-2.534;2024-02-28T15:43:08;11.90;99.90
48988;DHT22;34799;51.440;-2.534;2024-02-28T15:45:35;12.10;99.90
48988;DHT22;34799;51.440;-2.534;2024-02-28T15:48:05;11.90;99.90
48988;DHT22;34799;51.440;-2.534;2024-02-28T15:50:32;11.80;99.90
48988;DHT22;34799;51.440;-2.534;2024-02-28T15:53:00;11.70;99.90
48988;DHT22;34799;51.440;-2.534;2024-02-28T15:55:27;11.50;99.90
48988;DHT22;34799;51.440;-2.534;2024-02-28T16:00:23;12.20;99.90
48988;DHT22;34799;51.440;-2.534;2024-02-28T16:02:50;11.80;99.90
48988;DHT22;34799;51.440;-2.534;2024-02-28T16:05:19;11.70;99.90
48988;DHT22;34799;51.440;-2.534;2024-02-28T16:07:51;11.80;99.90
48988;DHT22;34799;51.440;-2.534;2024-02-28T16:10:19;12.20;99.90
48988;DHT22;34799;51.440;-2.534;2024-02-28T16:12:48;12.00;99.90
48988;DHT22;34799;51.440;-2.534;2024-02-28T16:15:17;12.00;99.90
48988;DHT22;34799;51.440;-2.534;2024-02-28T16:17:46;12.20;99.90
48988;DHT22;34799;51.440;-2.534;2024-02-28T16:20:14;12.30;99.90
48988;DHT22;34799;51.440;-2.534;2024-02-28T16:22:42;12.20;99.90
48988;DHT22;34799;51.440;-2.534;2024-02-28T16:25:11;12.00;99.90
48988;DHT22;34799;51.440;-2.534;2024-02-28T16:27:40;12.00;99.90
48988;DHT22;34799;51.440;-2.534;2024-02-28T16:30:07;11.90;99.90
48988;DHT22;34799;51.440;-2.534;2024-02-28T16:32:36;12.10;99.90
48988;DHT22;34799;51.440;-2.534;2024-02-28T16:35:03;12.10;99.90
48988;DHT22;34799;51.440;-2.534;2024-02-28T16:37:31;11.80;99.90
48988;DHT22;34799;51.440;-2.534;2024-02-28T16:39:59;11.90;99.90